Time;durP1;ratioP1;P1;durP2;ratioP2;P2;SDS_P1;SDS_P2;PMS_P1;PMS_P2;Temp;Humidity;BMP_temperature;BMP_pressure;BME280_temperature;BME280_humidity;BME280_pressure;Samples;Min_cycle;Max_cycle;Signal;HPM_P1;HPM_P2
2022/11/23 00:02:19;;;;;;;7.18;3.70;;;;;;;7.25;100.00;99636.19;5185598;28;20026;-68
2022/11/23 00:04:50;;;;;;;6.93;4.75;;;;;;;7.26;100.00;99629.75;5185462;28;20497;-69
2022/11/23 00:07:20;;;;;;;5.68;4.18;;;;;;;7.27;100.00;99639.44;5185529;28;20030;-69
2022/11/23 00:09:51;;;;;;;4.72;4.35;;;;;;;7.29;100.00;99641.84;5185096;28;20079;-69
2022/11/23 00:12:21;;;;;;;8.13;3.70;;;;;;;7.30;100.00;99635.41;5185522;28;20037;-68
2022/11/23 00:14:52;;;;;;;4.75;3.53;;;;;;;7.32;100.00;99641.31;5185451;28;20116;-68
2022/11/23 00:17:22;;;;;;;6.85;4.18;;;;;;;7.33;100.00;99634.88;5185444;28;20029;-69
2022/11/23 00:19:52;;;;;;;3.85;3.55;;;;;;;7.25;100.00;99630.81;5186164;28;20037;-68
2022/11/23 00:22:23;;;;;;;19.65;5.97;;;;;;;7.32;100.00;99642.13;5185266;28;20026;-69
2022/11/23 00:24:53;;;;;;;6.20;5.05;;;;;;;7.32;100.00;99630.59;5184990;28;20032;-68
2022/11/23 00:27:24;;;;;;;5.55;3.75;;;;;;;7.31;100.00;99637.84;5184695;28;20386;-68
2022/11/23 00:29:54;;;;;;;4.03;3.72;;;;;;;7.32;100.00;99631.38;5183730;28;20038;-68
2022/11/23 00:32:26;;;;;;;5.80;4.03;;;;;;;7.33;100.00;99637.56;5185747;28;20018;-68
2022/11/23 00:34:56;;;;;;;3.03;2.80;;;;;;;7.36;100.00;99635.16;5184642;28;20507;-68
2022/11/23 00:37:27;;;;;;;8.93;3.58;;;;;;;7.37;100.00;99635.97;5185804;28;20018;-68
2022/11/23 00:39:57;;;;;;;11.90;4.35;;;;;;;7.39;100.00;99637.31;5183928;28;20028;-68
2022/11/23 00:42:27;;;;;;;7.55;3.33;;;;;;;7.40;100.00;99638.94;5184600;28;20511;-68
2022/11/23 00:44:58;;;;;;;8.00;4.40;;;;;;;7.42;100.00;99639.47;5184238;28;20528;-68
2022/11/23 00:47:28;;;;;;;4.40;3.72;;;;;;;7.43;100.00;99643.78;5185858;28;20045;-68
2022/11/23 00:49:59;;;;;;;11.05;4.57;;;;;;;7.45;100.00;99646.22;5184030;28;20026;-67
2022/11/23 00:52:29;;;;;;;8.88;3.50;;;;;;;7.44;100.00;99650.78;5185394;28;20323;-68
2022/11/23 00:55:00;;;;;;;8.85;4.43;;;;;;;7.43;100.00;99637.59;5184204;28;20500;-68
2022/11/23 00:57:32;;;;;;;8.43;4.72;;;;;;;7.43;100.00;99645.66;5184406;28;20018;-67
2022/11/23 01:00:04;;;;;;;7.32;5.15;;;;;;;7.42;100.00;99628.75;5183892;28;20037;-68
2022/11/23 01:02:35;;;;;;;5.78;5.18;;;;;;;7.43;100.00;99637.59;5184027;28;20552;-67
2022/11/23 01:05:05;;;;;;;4.50;4.10;;;;;;;7.44;100.00;99637.34;5183506;28;20028;-67
2022/11/23 01:07:36;;;;;;;4.45;3.35;;;;;;;7.38;100.00;99633.03;5183922;28;20026;-67
2022/11/23 01:10:07;;;;;;;6.22;3.50;;;;;;;7.43;100.00;99643.78;5183600;28;20037;-67
2022/11/23 01:12:37;;;;;;;5.70;4.13;;;;;;;7.45;100.00;99644.34;5183750;28;20057;-68
2022/11/23 01:15:08;;;;;;;9.60;4.18;;;;;;;7.47;100.00;99635.19;5183876;28;20039;-67
2022/11/23 01:17:38;;;;;;;7.07;3.70;;;;;;;7.48;100.00;99639.50;5183832;28;20018;-67
2022/11/23 01:20:09;;;;;;;6.95;5.13;;;;;;;7.42;100.00;99639.47;5183573;28;20030;-66
2022/11/23 01:22:40;;;;;;;6.43;4.65;;;;;;;7.43;100.00;99649.16;5183626;28;20452;-66
2022/11/23 01:25:10;;;;;;;11.90;4.97;;;;;;;7.42;100.00;99646.72;5183920;28;20516;-66
2022/11/23 01:27:41;;;;;;;4.30;3.85;;;;;;;7.38;100.00;99645.66;5184117;28;20041;-67
2022/11/23 01:30:11;;;;;;;6.25;3.58;;;;;;;7.36;100.00;99653.16;5183618;28;20112;-68
2022/11/23 01:32:42;;;;;;;11.40;4.45;;;;;;;7.31;100.00;99653.94;5183932;28;20029;-66
2022/11/23 01:35:12;;;;;;;5.32;3.67;;;;;;;7.31;100.00;99664.69;5183719;28;20460;-66
2022/11/23 01:37:43;;;;;;;7.47;4.88;;;;;;;7.19;100.00;99637.28;5185173;28;20037;-66
2022/11/23 01:40:13;;;;;;;12.20;4.32;;;;;;;7.31;100.00;99662.00;5183246;28;20535;-66
2022/11/23 01:42:58;;;;;;;9.07;4.13;;;;;;;7.33;100.00;99659.06;5183679;28;20397;-68
2022/11/23 01:45:37;;;;;;;12.95;4.03;;;;;;;7.35;100.00;99652.34;5183452;28;20032;-66
2022/11/23 01:48:18;;;;;;;15.30;5.50;;;;;;;7.36;100.00;99658.53;5183702;28;20042;-66
2022/11/23 01:50:51;;;;;;;2.83;2.60;;;;;;;7.37;100.00;99666.31;5183357;28;20034;-66
2022/11/23 01:53:22;;;;;;;6.05;5.47;;;;;;;7.21;100.00;99653.94;5183589;28;20026;-66
2022/11/23 01:55:56;;;;;;;4.25;3.90;;;;;;;7.33;100.00;99667.91;5185213;28;20033;-66
2022/11/23 01:58:29;;;;;;;7.95;3.85;;;;;;;7.20;100.00;99652.31;5183523;28;20022;-66
2022/11/23 02:00:59;;;;;;;7.15;3.10;;;;;;;7.13;100.00;99632.94;5182930;28;20065;-66
2022/11/23 02:03:31;;;;;;;8.60;4.75;;;;;;;7.32;100.00;99671.66;5183528;28;20030;-66
2022/11/23 02:06:06;;;;;;;8.60;4.18;;;;;;;7.26;100.00;99669.22;5184935;28;20026;-67
2022/11/23 02:08:37;;;;;;;13.25;4.97;;;;;;;7.20;100.00;99649.63;5184761;28;20038;-66
2022/11/23 02:11:09;;;;;;;12.95;5.80;;;;;;;7.28;100.00;99667.91;5166868;28;20104;-66
2022/11/23 02:13:41;;;;;;;13.57;5.40;;;;;;;7.22;100.00;99657.41;5183328;28;20194;-68
2022/11/23 02:16:13;;;;;;;7.13;4.43;;;;;;;7.17;100.00;99658.22;5186311;28;20067;-67
2022/11/23 02:18:47;;;;;;;8.07;5.10;;;;;;;7.22;100.00;99663.56;5188751;28;20030;-67
2022/11/23 02:21:18;;;;;;;13.52;6.15;;;;;;;6.94;100.00;99635.28;5187094;28;20025;-66
2022/11/23 02:24:03;;;;;;;5.18;4.78;;;;;;;7.26;100.00;99679.97;5188530;28;20212;-67
2022/11/23 02:26:35;;;;;;;7.07;4.93;;;;;;;7.26;100.00;99686.16;5187329;28;20021;-66
2022/11/23 02:29:29;;;;;;;7.75;4.30;;;;;;;7.26;100.00;99685.34;5187344;28;20029;-67
2022/11/23 02:32:00;;;;;;;6.20;4.30;;;;;;;7.26;100.00;99678.09;5186869;28;20101;-67
2022/11/23 02:34:30;;;;;;;10.73;4.05;;;;;;;7.11;100.00;99676.16;5187205;28;20124;-66
2022/11/23 02:37:01;;;;;;;6.90;4.55;;;;;;;7.27;100.00;99685.06;5188157;28;20025;-67
2022/11/23 02:39:43;;;;;;;7.20;4.47;;;;;;;7.27;100.00;99685.06;5186971;28;20033;-66
2022/11/23 02:42:14;;;;;;;6.15;5.38;;;;;;;7.20;100.00;99673.78;5186932;28;20553;-67
2022/11/23 02:47:26;;;;;;;14.88;4.57;;;;;;;7.30;100.00;99687.25;5208011;28;20493;-66
2022/11/23 02:49:56;;;;;;;5.50;3.97;;;;;;;7.31;100.00;99682.69;5189476;28;20025;-67
2022/11/23 02:52:27;;;;;;;5.47;4.13;;;;;;;7.33;100.00;99680.53;5188006;28;20313;-67
2022/11/23 02:54:57;;;;;;;11.57;4.88;;;;;;;7.34;100.00;99688.34;5170268;28;20033;-67
2022/11/23 02:57:27;;;;;;;7.20;4.25;;;;;;;7.36;100.00;99680.00;5170359;28;20022;-67
2022/11/23 02:59:58;;;;;;;9.27;5.97;;;;;;;7.34;100.00;99680.28;5187720;28;20053;-66
2022/11/23 03:02:28;;;;;;;9.23;4.43;;;;;;;7.22;100.00;99665.47;5170315;28;20018;-69
2022/11/23 03:04:59;;;;;;;10.98;4.72;;;;;;;7.32;100.00;99679.72;5170086;28;20115;-67
2022/11/23 03:07:29;;;;;;;5.57;5.05;;;;;;;7.32;100.00;99677.03;5170074;28;20033;-67
2022/11/23 03:10:00;;;;;;;8.82;4.25;;;;;;;7.08;100.00;99635.59;5169364;28;20421;-67
2022/11/23 03:12:30;;;;;;;10.10;4.43;;;;;;;6.92;100.00;99610.59;5169668;28;20030;-69
2022/11/23 03:15:01;;;;;;;7.75;4.03;;;;;;;7.24;100.00;99680.22;5187366;28;20030;-66
2022/11/23 03:17:31;;;;;;;10.57;6.53;;;;;;;7.20;100.00;99676.47;5169875;28;20018;-67
2022/11/23 03:20:02;;;;;;;14.93;5.13;;;;;;;7.17;100.00;99682.38;5169297;28;20350;-67
2022/11/23 03:22:33;;;;;;;6.97;5.50;;;;;;;7.18;100.00;99688.53;5169698;28;20022;-67
2022/11/23 03:25:03;;;;;;;7.82;4.50;;;;;;;7.19;100.00;99690.97;5187346;28;20037;-66
2022/11/23 03:27:34;;;;;;;4.57;4.28;;;;;;;7.20;100.00;99687.22;5168698;28;20493;-67
2022/11/23 03:30:06;;;;;;;15.40;5.28;;;;;;;7.18;100.00;99677.81;5169312;28;20037;-67
2022/11/23 03:32:37;;;;;;;7.38;5.15;;;;;;;7.20;100.00;99692.59;5169150;28;20034;-66
2022/11/23 03:35:07;;;;;;;20.48;4.78;;;;;;;7.21;100.00;99688.03;5169751;28;20497;-66
2022/11/23 03:37:38;;;;;;;11.65;5.78;;;;;;;7.20;100.00;99697.97;5169314;28;20101;-66
2022/11/23 03:40:09;;;;;;;11.40;6.40;;;;;;;7.20;100.00;99697.16;5169041;28;20021;-67
2022/11/23 03:42:40;;;;;;;8.90;4.45;;;;;;;7.15;100.00;99681.81;5169476;28;20030;-66
2022/11/23 03:45:10;;;;;;;9.55;4.93;;;;;;;7.14;100.00;99701.69;5169628;28;20025;-65
2022/11/23 03:47:41;;;;;;;6.78;4.97;;;;;;;7.04;100.00;99697.06;5169923;28;20111;-66
2022/11/23 03:50:11;;;;;;;7.75;4.75;;;;;;;6.84;100.00;99686.22;5169272;28;20022;-66
2022/11/23 03:52:42;;;;;;;5.55;5.00;;;;;;;6.78;100.00;99689.94;5187507;28;20032;-66
2022/11/23 03:55:12;;;;;;;10.77;4.97;;;;;;;6.69;100.00;99691.50;5169706;28;20079;-67
2022/11/23 03:57:43;;;;;;;13.45;5.70;;;;;;;6.46;100.00;99663.19;5169395;28;20014;-67
2022/11/23 04:00:14;;;;;;;12.07;6.22;;;;;;;6.62;100.00;99689.06;5169191;28;20544;-65
2022/11/23 04:02:44;;;;;;;11.02;4.88;;;;;;;6.48;100.00;99666.41;5169279;28;20031;-66
2022/11/23 04:05:15;;;;;;;15.52;6.57;;;;;;;6.43;100.00;99669.06;5169452;28;20405;-66
2022/11/23 04:07:46;;;;;;;15.35;4.65;;;;;;;6.49;100.00;99677.94;5186526;28;20462;-65
2022/11/23 04:10:18;;;;;;;9.15;4.80;;;;;;;6.40;100.00;99683.78;5168722;28;20045;-68
2022/11/23 04:12:52;;;;;;;12.20;5.72;;;;;;;6.44;100.00;99684.09;5168273;28;20037;-66
2022/11/23 04:15:22;;;;;;;5.60;4.70;;;;;;;6.42;100.00;99680.84;5168697;28;20472;-66
2022/11/23 04:17:54;;;;;;;13.73;5.97;;;;;;;6.43;100.00;99674.44;5168783;28;20053;-67
2022/11/23 04:20:24;;;;;;;8.40;4.40;;;;;;;6.46;100.00;99670.41;5168121;28;20105;-66
2022/11/23 04:22:55;;;;;;;7.85;5.72;;;;;;;6.58;100.00;99690.63;5168460;28;20146;-69
2022/11/23 04:25:25;;;;;;;10.80;5.20;;;;;;;6.58;100.00;99687.94;5185683;28;20029;-67
2022/11/23 04:27:56;;;;;;;8.85;4.50;;;;;;;6.56;100.00;99697.31;5168223;28;20514;-67
2022/11/23 04:30:26;;;;;;;13.48;4.85;;;;;;;6.57;100.00;99694.38;5167540;28;20448;-66
2022/11/23 04:32:57;;;;;;;7.57;4.57;;;;;;;6.56;100.00;99698.13;5168316;28;20050;-66
2022/11/23 04:35:27;;;;;;;6.20;4.22;;;;;;;6.56;100.00;99695.44;5168473;28;20482;-67
2022/11/23 04:37:58;;;;;;;7.00;3.92;;;;;;;6.55;100.00;99687.66;5168053;28;20026;-67
2022/11/23 04:40:30;;;;;;;8.77;4.75;;;;;;;6.37;100.00;99654.81;5166939;28;20072;-67
2022/11/23 04:43:02;;;;;;;11.60;5.25;;;;;;;6.57;100.00;99689.03;5168107;28;20030;-67
2022/11/23 04:45:37;;;;;;;11.40;4.32;;;;;;;6.61;100.00;99689.31;5167785;28;20034;-67
2022/11/23 04:48:07;;;;;;;9.05;4.57;;;;;;;6.52;100.00;99670.22;5168027;28;20320;-67
2022/11/23 04:50:38;;;;;;;8.57;5.18;;;;;;;6.62;100.00;99689.06;5167643;28;20026;-66
2022/11/23 04:53:08;;;;;;;11.85;5.80;;;;;;;6.54;100.00;99676.13;5167936;28;20017;-67
2022/11/23 04:55:39;;;;;;;8.60;5.43;;;;;;;6.59;100.00;99676.16;5167845;28;20058;-67
2022/11/23 04:58:09;;;;;;;9.30;5.78;;;;;;;6.63;100.00;99682.63;5168035;28;20057;-67
2022/11/23 05:00:40;;;;;;;10.18;5.40;;;;;;;6.42;100.00;99646.00;5167545;28;20025;-67
2022/11/23 05:03:10;;;;;;;5.68;4.28;;;;;;;6.65;100.00;99680.47;5167604;28;20022;-66
2022/11/23 05:05:41;;;;;;;7.95;5.70;;;;;;;6.63;100.00;99681.81;5167530;28;20477;-65
2022/11/23 05:08:12;;;;;;;19.00;6.28;;;;;;;6.67;100.00;99681.03;5185608;28;20034;-67
2022/11/23 05:10:42;;;;;;;25.95;6.13;;;;;;;6.62;100.00;99675.66;5167103;28;20030;-67
2022/11/23 05:13:13;;;;;;;6.95;5.38;;;;;;;6.69;100.00;99681.56;5167459;28;20029;-65
2022/11/23 05:15:44;;;;;;;16.60;6.18;;;;;;;6.62;100.00;99664.91;5167760;28;20501;-67
2022/11/23 05:18:14;;;;;;;7.80;5.00;;;;;;;6.63;100.00;99661.16;5184966;28;20049;-67
2022/11/23 05:20:45;;;;;;;11.02;4.60;;;;;;;6.70;100.00;99675.13;5167114;28;20032;-69
2022/11/23 05:23:16;;;;;;;9.30;5.53;;;;;;;6.70;100.00;99682.38;5167731;28;20033;-67
2022/11/23 05:25:46;;;;;;;18.33;5.57;;;;;;;6.68;100.00;99677.28;5167381;28;20025;-67
2022/11/23 05:28:19;;;;;;;11.15;5.82;;;;;;;6.65;100.00;99668.94;5167250;28;20030;-67
2022/11/23 05:30:50;;;;;;;12.73;5.47;;;;;;;6.65;100.00;99676.97;5166738;28;20030;-66
2022/11/23 05:33:20;;;;;;;8.50;4.38;;;;;;;6.60;100.00;99677.78;5167335;28;20033;-67
2022/11/23 05:35:51;;;;;;;15.30;4.45;;;;;;;6.61;100.00;99679.41;5167298;28;20467;-67
2022/11/23 05:38:21;;;;;;;8.65;5.85;;;;;;;6.57;100.00;99677.47;5167055;28;20022;-67
2022/11/23 05:40:52;;;;;;;6.57;4.75;;;;;;;6.46;100.00;99673.91;5166662;28;20496;-67
2022/11/23 05:43:22;;;;;;;5.75;5.35;;;;;;;6.41;100.00;99676.56;5166026;28;20173;-67
2022/11/23 05:45:53;;;;;;;26.80;8.27;;;;;;;6.31;100.00;99673.81;5174086;28;20390;-66
2022/11/23 05:48:23;;;;;;;9.88;4.88;;;;;;;6.24;100.00;99679.38;5190926;28;20486;-67
2022/11/23 05:50:54;;;;;;;7.53;4.95;;;;;;;6.10;100.00;99662.91;5192420;28;20485;-67
2022/11/23 05:53:24;;;;;;;10.38;4.93;;;;;;;6.20;100.00;99680.97;5174086;28;20026;-68
2022/11/23 05:55:59;;;;;;;8.48;4.35;;;;;;;6.03;100.00;99659.66;5179563;28;20033;-67
2022/11/23 05:58:33;;;;;;;8.50;4.43;;;;;;;6.10;100.00;99684.34;5184010;28;20030;-67
2022/11/23 06:01:04;;;;;;;16.92;6.68;;;;;;;6.12;100.00;99688.66;5173208;28;20030;-66
2022/11/23 06:03:34;;;;;;;13.88;6.45;;;;;;;6.03;100.00;99683.78;5191175;28;20030;-69
2022/11/23 06:06:11;;;;;;;9.27;5.03;;;;;;;5.92;100.00;99687.44;5173310;28;20076;-67
2022/11/23 06:08:50;;;;;;;12.40;5.05;;;;;;;5.84;100.00;99687.03;5209635;28;20108;-67
2022/11/23 06:11:27;;;;;;;12.15;5.15;;;;;;;5.71;100.00;99691.75;5211595;28;20397;-68
2022/11/23 06:13:57;;;;;;;12.23;5.55;;;;;;;5.59;100.00;99690.28;5193914;28;20037;-68
2022/11/23 06:16:28;;;;;;;10.35;5.18;;;;;;;5.53;100.00;99699.31;5193268;28;20037;-68
2022/11/23 06:18:58;;;;;;;9.25;5.93;;;;;;;5.43;100.00;99689.31;5210140;28;20028;-67
2022/11/23 06:21:32;;;;;;;4.65;4.15;;;;;;;5.40;100.00;99685.25;5191427;28;20556;-66
2022/11/23 06:24:02;;;;;;;13.00;5.35;;;;;;;5.32;100.00;99693.72;5193071;28;20059;-69
2022/11/23 06:26:33;;;;;;;14.00;5.47;;;;;;;5.19;100.00;99688.75;5210945;28;20493;-67
2022/11/23 06:29:04;;;;;;;9.35;5.18;;;;;;;5.16;100.00;99691.94;5192974;28;20107;-67
2022/11/23 06:31:35;;;;;;;20.70;6.53;;;;;;;5.07;100.00;99698.78;5192595;28;20116;-67
2022/11/23 06:34:05;;;;;;;11.68;4.45;;;;;;;5.01;100.00;99697.09;5192943;28;20033;-66
2022/11/23 06:36:36;;;;;;;14.02;6.15;;;;;;;4.93;100.00;99689.47;5193053;28;20028;-67
2022/11/23 06:39:06;;;;;;;13.02;6.03;;;;;;;4.89;100.00;99694.53;5193028;28;20382;-67
2022/11/23 06:41:37;;;;;;;14.40;8.73;;;;;;;4.87;100.00;99695.84;5193410;28;20021;-67
2022/11/23 06:44:07;;;;;;;12.57;7.25;;;;;;;4.82;100.00;99693.09;5193921;28;20033;-67
2022/11/23 06:46:38;;;;;;;10.15;5.18;;;;;;;4.70;100.00;99690.50;5193381;28;20052;-65
2022/11/23 06:49:08;;;;;;;11.05;5.07;;;;;;;4.66;100.00;99700.88;5193862;28;20044;-66
2022/11/23 06:51:39;;;;;;;15.25;6.03;;;;;;;4.58;100.00;99698.66;5193119;28;20105;-67
2022/11/23 06:54:09;;;;;;;6.18;5.53;;;;;;;4.59;100.00;99708.28;5193622;28;20021;-66
2022/11/23 06:56:39;;;;;;;21.30;12.52;;;;;;;4.48;100.00;99698.47;5193766;28;20018;-67
2022/11/23 06:59:10;;;;;;;11.18;7.80;;;;;;;4.51;100.00;99710.56;5193496;28;20025;-67
2022/11/23 07:01:40;;;;;;;10.23;6.05;;;;;;;4.47;100.00;99720.09;5192466;28;20120;-67
2022/11/23 07:04:11;;;;;;;11.18;7.13;;;;;;;4.44;100.00;99729.44;5207475;28;20036;-66
2022/11/23 07:06:41;;;;;;;12.30;5.80;;;;;;;4.46;100.00;99721.16;5190282;28;20064;-66
2022/11/23 07:09:11;;;;;;;8.27;5.72;;;;;;;4.40;100.00;99722.94;5190008;28;20037;-67
2022/11/23 07:11:42;;;;;;;12.77;5.30;;;;;;;4.36;100.00;99729.81;5189442;28;20048;-67
2022/11/23 07:14:13;;;;;;;6.10;5.30;;;;;;;4.15;100.00;99712.66;5190087;28;20033;-68
2022/11/23 07:16:43;;;;;;;8.93;7.05;;;;;;;4.37;100.00;99734.13;5207747;28;20473;-67
2022/11/23 07:19:14;;;;;;;9.73;5.90;;;;;;;4.34;100.00;99732.72;5189723;28;20029;-70
2022/11/23 07:21:45;;;;;;;14.93;5.90;;;;;;;4.33;100.00;99730.34;5173539;28;20485;-67
2022/11/23 07:24:16;;;;;;;19.25;6.90;;;;;;;4.37;100.00;99736.78;5189922;28;20040;-68
2022/11/23 07:26:46;;;;;;;13.65;6.88;;;;;;;4.47;100.00;99752.19;5189787;28;20036;-70
2022/11/23 07:29:17;;;;;;;14.68;7.20;;;;;;;4.50;100.00;99760.53;5207357;28;20018;-68
2022/11/23 07:31:47;;;;;;;12.25;5.80;;;;;;;4.51;100.00;99759.47;5189193;28;20064;-68
2022/11/23 07:34:17;;;;;;;11.55;4.47;;;;;;;4.54;100.00;99752.84;5189725;28;20389;-69
2022/11/23 07:36:48;;;;;;;4.60;4.35;;;;;;;4.52;100.00;99728.22;5189734;28;20064;-69
2022/11/23 07:39:18;;;;;;;10.52;5.55;;;;;;;4.72;100.00;99763.28;5189967;28;20432;-69
2022/11/23 07:41:49;;;;;;;11.73;6.53;;;;;;;4.74;100.00;99769.19;5206862;28;20033;-70
2022/11/23 07:44:20;;;;;;;12.65;4.80;;;;;;;4.72;100.00;99773.97;5207307;28;20021;-70
2022/11/23 07:46:53;;;;;;;15.45;6.45;;;;;;;4.77;100.00;99778.59;5189378;28;20324;-70
2022/11/23 07:49:24;;;;;;;5.85;4.15;;;;;;;4.77;100.00;99774.06;5189091;28;20029;-70
2022/11/23 07:51:55;;;;;;;4.88;4.47;;;;;;;4.87;100.00;99784.09;5189117;28;20029;-69
2022/11/23 07:54:25;;;;;;;7.65;5.78;;;;;;;4.82;100.00;99784.84;5189127;28;20363;-70
2022/11/23 07:56:56;;;;;;;13.40;5.65;;;;;;;4.82;100.00;99789.38;5189487;28;20028;-70
2022/11/23 07:59:26;;;;;;;5.82;5.28;;;;;;;4.64;100.00;99772.50;5189112;28;20029;-70
2022/11/23 08:01:57;;;;;;;10.98;5.90;;;;;;;4.84;100.00;99801.44;5188812;28;20025;-70
2022/11/23 08:04:28;;;;;;;8.77;6.75;;;;;;;4.79;100.00;99789.88;5189122;28;20087;-70
2022/11/23 08:06:59;;;;;;;15.93;6.35;;;;;;;4.87;100.00;99792.94;5189136;28;20108;-70
2022/11/23 08:09:30;;;;;;;11.70;6.25;;;;;;;4.97;100.00;99795.75;5189008;28;20032;-70
2022/11/23 08:12:00;;;;;;;10.75;4.85;;;;;;;5.03;100.00;99796.63;5188624;28;20022;-68
2022/11/23 08:14:31;;;;;;;8.32;5.93;;;;;;;5.04;100.00;99799.06;5206534;28;20060;-69
2022/11/23 08:17:01;;;;;;;6.75;6.10;;;;;;;5.08;100.00;99789.50;5189003;28;20021;-68
2022/11/23 08:19:32;;;;;;;9.65;6.18;;;;;;;5.08;100.00;99794.03;5188668;28;20124;-68
2022/11/23 08:22:02;;;;;;;7.45;4.50;;;;;;;5.12;100.00;99789.81;5188313;28;20021;-68
2022/11/23 08:24:33;;;;;;;16.20;6.95;;;;;;;5.18;100.00;99788.84;5188919;28;20036;-68
2022/11/23 08:27:03;;;;;;;9.18;4.82;;;;;;;5.24;100.00;99795.88;5188699;28;20021;-68
2022/11/23 08:29:34;;;;;;;20.60;5.05;;;;;;;5.30;100.00;99786.84;5188286;28;20025;-68
2022/11/23 08:32:04;;;;;;;6.10;4.65;;;;;;;5.33;100.00;99789.03;5188354;28;20459;-68
2022/11/23 08:34:34;;;;;;;13.13;5.45;;;;;;;5.34;100.00;99798.69;5188774;28;20021;-68
2022/11/23 08:37:05;;;;;;;9.18;4.78;;;;;;;5.39;100.00;99795.28;5206708;28;20055;-68
2022/11/23 08:39:35;;;;;;;5.28;4.45;;;;;;;5.44;100.00;99792.66;5206154;28;20025;-68
2022/11/23 08:42:06;;;;;;;10.60;6.15;;;;;;;5.47;100.00;99800.22;5205457;28;20033;-70
2022/11/23 08:44:36;;;;;;;9.32;4.72;;;;;;;5.49;100.00;99803.41;5186626;28;20026;-70
2022/11/23 08:47:07;;;;;;;11.55;6.38;;;;;;;5.35;100.00;99773.53;5186370;23;20040;-72
2022/11/23 08:49:37;;;;;;;6.28;5.75;;;;;;;5.57;100.00;99807.53;5167500;28;20069;-69
2022/11/23 08:52:08;;;;;;;19.48;6.45;;;;;;;5.58;100.00;99793.91;5167536;28;20025;-71
2022/11/23 08:54:38;;;;;;;7.78;4.95;;;;;;;5.61;100.00;99792.59;5168061;28;20030;-69
2022/11/23 08:57:09;;;;;;;12.05;5.60;;;;;;;5.69;100.00;99787.63;5185524;28;20018;-69
2022/11/23 08:59:39;;;;;;;7.50;4.93;;;;;;;5.73;100.00;99779.91;5166334;28;20026;-69
2022/11/23 09:02:12;;;;;;;7.82;4.75;;;;;;;5.91;100.00;99776.91;5167225;28;20036;-70
2022/11/23 09:04:42;;;;;;;11.82;6.97;;;;;;;6.03;100.00;99766.88;5167451;28;20057;-69
2022/11/23 09:07:13;;;;;;;13.52;5.53;;;;;;;6.06;100.00;99758.28;5185297;28;20198;-69
2022/11/23 09:09:43;;;;;;;9.25;5.18;;;;;;;6.21;100.00;99762.19;5167685;28;20053;-69
2022/11/23 09:12:14;;;;;;;4.95;4.55;;;;;;;6.33;100.00;99749.44;5167597;28;20083;-69
2022/11/23 09:14:44;;;;;;;16.23;5.10;;;;;;;6.44;100.00;99727.00;5167283;28;20034;-70
2022/11/23 09:17:15;;;;;;;6.80;4.78;;;;;;;6.42;100.00;99716.53;5167579;28;20021;-71
2022/11/23 09:19:45;;;;;;;5.28;4.18;;;;;;;6.42;100.00;99726.44;5166997;28;20021;-69
2022/11/23 09:22:16;;;;;;;13.60;5.28;;;;;;;6.40;100.00;99724.00;5184814;28;20033;-69
2022/11/23 09:24:46;;;;;;;5.70;3.92;;;;;;;6.47;100.00;99721.13;5167122;28;20036;-69
2022/11/23 09:27:17;;;;;;;8.15;5.88;;;;;;;6.49;100.00;99721.66;5166561;28;20022;-70
2022/11/23 09:29:48;;;;;;;5.43;4.55;;;;;;;6.51;100.00;99711.50;5184387;28;20056;-70
2022/11/23 09:32:18;;;;;;;9.93;5.38;;;;;;;6.58;100.00;99712.09;5167489;28;20453;-70
2022/11/23 09:34:48;;;;;;;9.63;5.22;;;;;;;6.67;100.00;99705.16;5167317;28;20072;-70
2022/11/23 09:37:19;;;;;;;5.88;5.43;;;;;;;6.74;100.00;99705.75;5167067;28;20022;-69
2022/11/23 09:39:49;;;;;;;4.78;4.13;;;;;;;6.88;100.00;99710.69;5166852;28;20030;-68
2022/11/23 09:42:44;;;;;;;7.60;5.10;;;;;;;6.65;100.00;99661.69;5184881;28;20149;-67
2022/11/23 09:45:46;;;;;;;8.20;5.00;;;;;;;7.05;100.00;99705.94;5167097;28;20033;-68
2022/11/23 09:48:42;;;;;;;10.63;5.00;;;;;;;7.25;100.00;99714.06;5167198;28;20414;-68
2022/11/23 09:51:17;;;;;;;11.20;4.95;;;;;;;7.36;100.00;99713.06;5166755;28;20309;-68
2022/11/23 09:54:31;;;;;;;7.25;5.38;;;;;;;7.51;100.00;99709.59;5166719;28;20034;-69
2022/11/23 09:57:03;;;;;;;9.55;3.97;;;;;;;7.63;100.00;99704.00;5130068;28;20072;-68
2022/11/23 09:59:49;;;;;;;7.75;3.80;;;;;;;7.70;100.00;99700.00;5166961;28;20022;-68
2022/11/23 10:02:25;;;;;;;5.88;4.88;;;;;;;7.87;100.00;99713.19;5167063;28;20091;-68
2022/11/23 10:04:59;;;;;;;15.10;5.47;;;;;;;7.94;100.00;99715.63;5166525;28;20033;-68
2022/11/23 10:07:53;;;;;;;5.00;4.60;;;;;;;7.92;100.00;99710.50;5167076;28;20018;-69
2022/11/23 10:10:35;;;;;;;6.30;4.55;;;;;;;7.97;100.00;99704.34;5130989;28;20049;-68
2022/11/23 10:13:06;;;;;;;4.40;3.72;;;;;;;8.00;100.00;99707.31;5167170;28;20489;-68
2022/11/23 10:15:54;;;;;;;9.70;4.88;;;;;;;8.01;100.00;99691.97;5167780;28;20068;-68
2022/11/23 10:18:43;;;;;;;5.43;3.45;;;;;;;8.01;100.00;99690.09;5167395;28;20028;-68
2022/11/23 10:21:25;;;;;;;5.97;3.63;;;;;;;8.10;100.00;99674.22;5166904;28;20057;-68
2022/11/23 10:24:01;;;;;;;3.38;3.13;;;;;;;8.13;100.00;99679.88;5167231;28;20029;-68
2022/11/23 10:26:36;;;;;;;7.78;3.67;;;;;;;8.10;100.00;99682.28;5184952;28;20029;-68
2022/11/23 10:29:40;;;;;;;9.23;3.05;;;;;;;8.06;100.00;99668.59;5167075;28;20057;-68
2022/11/23 10:32:25;;;;;;;4.30;3.03;;;;;;;8.07;100.00;99672.91;5124657;28;20034;-68
2022/11/23 10:35:20;;;;;;;9.30;4.10;;;;;;;8.00;100.00;99669.66;5166719;28;20107;-68
2022/11/23 10:37:51;;;;;;;5.38;3.70;;;;;;;8.11;100.00;99671.28;5167723;28;20026;-68
2022/11/23 10:40:24;;;;;;;5.60;3.92;;;;;;;8.23;100.00;99654.88;5169988;28;20025;-69
2022/11/23 10:43:14;;;;;;;3.30;2.95;;;;;;;8.15;100.00;99639.28;5170607;28;20511;-68
2022/11/23 10:45:44;;;;;;;7.35;4.63;;;;;;;8.10;100.00;99650.84;5170516;28;20103;-68
2022/11/23 10:48:34;;;;;;;4.70;3.63;;;;;;;8.10;100.00;99650.84;5170338;28;20037;-70
2022/11/23 10:51:34;;;;;;;5.85;4.40;;;;;;;8.05;100.00;99641.97;5170244;28;20021;-68
2022/11/23 10:54:20;;;;;;;7.60;4.07;;;;;;;8.04;100.00;99637.69;5153580;28;20034;-68
2022/11/23 10:56:52;;;;;;;9.98;3.95;;;;;;;8.08;100.00;99623.41;5169954;28;20454;-68
2022/11/23 10:59:37;;;;;;;4.32;4.05;;;;;;;8.14;100.00;99611.56;5169890;28;20069;-68
2022/11/23 11:02:18;;;;;;;5.07;4.43;;;;;;;8.22;100.00;99606.75;5169562;28;20464;-68
2022/11/23 11:04:49;;;;;;;4.70;3.90;;;;;;;8.31;100.00;99605.13;5169577;28;20030;-68
2022/11/23 11:07:25;;;;;;;3.47;2.97;;;;;;;8.36;100.00;99605.94;5169437;28;20119;-68
2022/11/23 11:10:02;;;;;;;10.55;3.85;;;;;;;8.33;100.00;99589.56;5169101;28;20440;-68
2022/11/23 11:12:33;;;;;;;10.70;4.28;;;;;;;8.38;100.00;99595.69;5169325;28;20036;-66
2022/11/23 11:15:10;;;;;;;3.58;3.30;;;;;;;8.48;100.00;99588.69;5169270;28;20088;-66
2022/11/23 11:17:41;;;;;;;3.58;3.30;;;;;;;8.50;100.00;99587.34;5169147;28;20430;-66
2022/11/23 11:20:38;;;;;;;3.15;2.95;;;;;;;8.60;100.00;99587.31;5169183;28;20026;-66
2022/11/23 11:23:19;;;;;;;3.78;3.47;;;;;;;8.68;100.00;99578.66;5166628;28;20441;-66
2022/11/23 11:25:51;;;;;;;3.72;3.08;;;;;;;8.66;100.00;99577.34;5169172;28;20033;-66
2022/11/23 11:28:31;;;;;;;7.50;4.38;;;;;;;8.66;100.00;99575.44;5168900;28;20049;-66
2022/11/23 11:31:14;;;;;;;3.53;3.08;;;;;;;8.69;100.00;99577.59;5168997;28;20029;-67
2022/11/23 11:34:25;;;;;;;3.38;3.08;;;;;;;8.74;100.00;99561.44;5169274;28;20490;-66
2022/11/23 11:37:23;;;;;;;5.60;4.18;;;;;;;8.79;100.00;99564.09;5148833;28;20122;-65
2022/11/23 11:40:02;;;;;;;6.82;3.42;;;;;;;8.84;100.00;99554.41;5168413;28;20128;-68
2022/11/23 11:42:37;;;;;;;4.53;4.13;;;;;;;8.93;100.00;99563.53;5169429;28;20057;-68
2022/11/23 11:45:16;;;;;;;3.40;3.25;;;;;;;8.99;100.00;99547.03;5169226;28;20401;-66
2022/11/23 11:47:56;;;;;;;4.57;3.67;;;;;;;9.10;100.00;99550.50;5169052;28;20018;-66
2022/11/23 11:50:33;;;;;;;10.77;4.55;;;;;;;9.22;100.00;99545.59;5168406;28;20034;-66
2022/11/23 11:53:14;;;;;;;3.92;3.10;;;;;;;9.33;100.00;99539.03;5169336;28;20037;-66
2022/11/23 11:55:55;;;;;;;10.45;4.28;;;;;;;9.36;100.00;99516.13;5168704;28;20033;-66
2022/11/23 11:58:26;;;;;;;9.25;5.07;;;;;;;9.33;100.00;99497.81;5167036;28;20504;-65
2022/11/23 12:01:20;;;;;;;3.97;3.75;;;;;;;9.46;100.00;99514.16;5168026;28;20113;-66